Time,TemperatureF,DewpointF,PressureIn,WindDirection,WindDirectionDegrees,WindSpeedMPH,WindSpeedGustMPH,Humidity,HourlyPrecipIn,Conditions,Clouds,dailyrainin,SoftwareType,DateUTC
2013-07-10 00:11:00,72.5,38.0,29.58,NNW,347,3.0,-999.0,28,-99.99,,,0.00,weatherlink.com 1.10,2013-07-10 06:11:00,
2013-07-10 00:26:00,71.3,38.0,29.57,NNW,347,0.0,-999.0,30,-99.99,,,0.00,weatherlink.com 1.10,2013-07-10 06:26:00,
2013-07-10 00:41:00,72.7,37.0,29.57,NNW,347,0.0,-999.0,27,-99.99,,,0.00,weatherlink.com 1.10,2013-07-10 06:41:00,
2013-07-10 00:56:00,70.8,37.0,29.57,NNW,347,0.0,-999.0,29,-99.99,,,0.00,weatherlink.com 1.10,2013-07-10 06:56:00,
2013-07-10 01:11:00,69.6,38.0,29.58,NNW,347,2.0,-999.0,31,-99.99,,,0.00,weatherlink.com 1.10,2013-07-10 07:11:00,
2013-07-10 01:26:00,69.6,38.0,29.59,NE,41,0.0,-999.0,31,-99.99,,,0.00,weatherlink.com 1.10,2013-07-10 07:26:00,
2013-07-10 01:41:00,67.9,38.0,29.58,NE,41,0.0,-999.0,33,-99.99,,,0.00,weatherlink.com 1.10,2013-07-10 07:41:00,
2013-07-10 01:56:00,66.1,38.0,29.60,NE,41,0.0,-999.0,36,-99.99,,,0.00,weatherlink.com 1.10,2013-07-10 07:56:00,
2013-07-10 02:11:00,64.7,38.0,29.60,NE,41,0.0,-999.0,38,-99.99,,,0.00,weatherlink.com 1.10,2013-07-10 08:11:00,
2013-07-10 02:26:00,64.5,40.0,29.61,NE,41,0.0,-999.0,41,-99.99,,,0.00,weatherlink.com 1.10,2013-07-10 08:26:00,
2013-07-10 02:41:00,64.0,41.0,29.61,NE,41,0.0,-999.0,43,-99.99,,,0.00,weatherlink.com 1.10,2013-07-10 08:41:00,
2013-07-10 02:56:00,64.7,41.0,29.61,NE,41,1.0,-999.0,42,-99.99,,,0.00,weatherlink.com 1.10,2013-07-10 08:56:00,
2013-07-10 03:11:00,65.0,42.0,29.60,North,1,0.0,-999.0,43,-99.99,,,0.00,weatherlink.com 1.10,2013-07-10 09:11:00,
2013-07-10 03:26:00,65.3,41.0,29.60,North,1,0.0,-999.0,42,-99.99,,,0.00,weatherlink.com 1.10,2013-07-10 09:26:00,
2013-07-10 03:41:00,64.7,42.0,29.59,North,1,3.0,-999.0,43,-99.99,,,0.00,weatherlink.com 1.10,2013-07-10 09:41:00,
2013-07-10 03:56:00,63.5,42.0,29.60,North,359,1.0,-999.0,45,-99.99,,,0.00,weatherlink.com 1.10,2013-07-10 09:56:00,
2013-07-10 04:11:00,64.0,42.0,29.61,North,359,2.0,-999.0,45,-99.99,,,0.00,weatherlink.com 1.10,2013-07-10 10:11:00,
2013-07-10 04:26:00,63.9,43.0,29.61,North,359,4.0,-999.0,46,-99.99,,,0.00,weatherlink.com 1.10,2013-07-10 10:26:00,
2013-07-10 04:41:00,64.3,42.0,29.62,North,359,3.0,-999.0,45,-99.99,,,0.00,weatherlink.com 1.10,2013-07-10 10:41:00,
2013-07-10 04:56:00,64.2,42.0,29.62,North,359,4.0,-999.0,45,-99.99,,,0.00,weatherlink.com 1.10,2013-07-10 10:56:00,
2013-07-10 05:11:00,64.2,42.0,29.62,North,349,3.0,-999.0,45,-99.99,,,0.00,weatherlink.com 1.10,2013-07-10 11:11:00,
2013-07-10 05:26:00,64.2,43.0,29.62,North,349,4.0,-999.0,46,-99.99,,,0.00,weatherlink.com 1.10,2013-07-10 11:26:00,
2013-07-10 05:41:00,63.7,43.0,29.63,North,349,3.0,-999.0,47,-99.99,,,0.00,weatherlink.com 1.10,2013-07-10 11:41:00,
2013-07-10 05:56:00,63.9,43.0,29.64,North,349,2.0,-999.0,46,-99.99,,,0.00,weatherlink.com 1.10,2013-07-10 11:56:00,
2013-07-10 06:12:00,64.0,43.0,29.65,North,349,3.0,-999.0,46,-99.99,,,0.00,weatherlink.com 1.10,2013-07-10 12:12:00,
2013-07-10 06:27:00,64.5,43.0,29.65,North,349,0.0,-999.0,46,-99.99,,,0.00,weatherlink.com 1.10,2013-07-10 12:27:00,
2013-07-10 06:41:00,65.5,44.0,29.65,North,350,0.0,-999.0,46,-99.99,,,0.00,weatherlink.com 1.10,2013-07-10 12:41:00,
2013-07-10 06:57:00,67.1,44.0,29.65,North,349,4.0,-999.0,44,-99.99,,,0.00,weatherlink.com 1.10,2013-07-10 12:57:00,
2013-07-10 07:12:00,70.1,45.0,29.64,North,353,4.0,-999.0,40,-99.99,,,0.00,weatherlink.com 1.10,2013-07-10 13:12:00,
2013-07-10 07:28:00,71.3,45.0,29.63,North,356,3.0,-999.0,39,-99.99,,,0.00,weatherlink.com 1.10,2013-07-10 13:28:00,
2013-07-10 07:41:00,73.7,46.0,29.64,North,0,2.0,-999.0,37,-99.99,,,0.00,weatherlink.com 1.10,2013-07-10 13:41:00,
2013-07-10 07:57:00,75.8,50.0,29.63,NE,49,3.0,-999.0,40,-99.99,,,0.00,weatherlink.com 1.10,2013-07-10 13:57:00,
2013-07-10 08:12:00,78.8,47.0,29.62,NE,46,3.0,-999.0,33,-99.99,,,0.00,weatherlink.com 1.10,2013-07-10 14:12:00,
2013-07-10 08:27:00,80.5,48.0,29.60,NE,53,3.0,-999.0,32,-99.99,,,0.00,weatherlink.com 1.10,2013-07-10 14:27:00,
2013-07-10 08:42:00,81.6,48.0,29.62,East,82,3.0,-999.0,31,-99.99,,,0.00,weatherlink.com 1.10,2013-07-10 14:42:00,
2013-07-10 08:58:00,82.8,49.0,29.61,NE,56,3.0,-999.0,31,-99.99,,,0.00,weatherlink.com 1.10,2013-07-10 14:58:00,
2013-07-10 09:13:00,84.1,47.0,29.62,ESE,110,9.0,-999.0,27,-99.99,,,0.00,weatherlink.com 1.10,2013-07-10 15:13:00,
2013-07-10 09:29:00,84.7,48.0,29.61,East,89,4.0,-999.0,28,-99.99,,,0.00,weatherlink.com 1.10,2013-07-10 15:29:00,
2013-07-10 09:43:00,85.5,48.0,29.62,ESE,102,5.0,-999.0,27,-99.99,,,0.00,weatherlink.com 1.10,2013-07-10 15:43:00,
2013-07-10 09:59:00,87.0,48.0,29.61,ESE,110,3.0,-999.0,26,-99.99,,,0.00,weatherlink.com 1.10,2013-07-10 15:59:00,
2013-07-10 10:13:00,87.6,47.0,29.61,SE,137,5.0,-999.0,24,-99.99,,,0.00,weatherlink.com 1.10,2013-07-10 16:13:00,
2013-07-10 10:28:00,88.0,48.0,29.61,ESE,117,6.0,-999.0,25,-99.99,,,0.00,weatherlink.com 1.10,2013-07-10 16:28:00,
2013-07-10 10:44:00,88.8,46.0,29.64,ENE,69,4.0,-999.0,23,-99.99,,,0.00,weatherlink.com 1.10,2013-07-10 16:44:00,
2013-07-10 11:00:00,89.3,47.0,29.63,ESE,113,2.0,-999.0,23,-99.99,,,0.00,weatherlink.com 1.10,2013-07-10 17:00:00,
2013-07-10 11:14:00,89.9,46.0,29.63,ESE,107,8.0,-999.0,22,-99.99,,,0.00,weatherlink.com 1.10,2013-07-10 17:14:00,
2013-07-10 11:28:00,90.7,47.0,29.62,NNE,33,3.0,-999.0,22,-99.99,,,0.00,weatherlink.com 1.10,2013-07-10 17:28:00,
2013-07-10 11:43:00,91.0,47.0,29.61,SSE,168,0.0,-999.0,22,-99.99,,,0.00,weatherlink.com 1.10,2013-07-10 17:43:00,
2013-07-10 11:59:00,91.6,46.0,29.61,ENE,68,0.0,-999.0,21,-99.99,,,0.00,weatherlink.com 1.10,2013-07-10 17:59:00,
2013-07-10 12:14:00,93.2,47.0,29.60,SSE,156,4.0,-999.0,20,-99.99,,,0.00,weatherlink.com 1.10,2013-07-10 18:14:00,
2013-07-10 12:29:00,92.7,46.0,29.58,South,170,4.0,-999.0,20,-99.99,,,0.00,weatherlink.com 1.10,2013-07-10 18:29:00,
2013-07-10 12:45:00,93.8,46.0,29.61,South,177,0.0,-999.0,19,-99.99,,,0.00,weatherlink.com 1.10,2013-07-10 18:45:00,
2013-07-10 12:58:00,94.0,46.0,29.59,SSW,200,6.0,-999.0,19,-99.99,,,0.00,weatherlink.com 1.10,2013-07-10 18:58:00,
2013-07-10 13:14:00,94.9,45.0,29.59,SSW,195,6.0,-999.0,18,-99.99,,,0.00,weatherlink.com 1.10,2013-07-10 19:14:00,
2013-07-10 13:30:00,95.6,44.0,29.56,SSW,198,5.0,-999.0,17,-99.99,,,0.00,weatherlink.com 1.10,2013-07-10 19:30:00,
2013-07-10 13:45:00,95.9,43.0,29.58,West,265,0.0,-999.0,16,-99.99,,,0.00,weatherlink.com 1.10,2013-07-10 19:45:00,
2013-07-10 14:00:00,97.3,42.0,29.58,ESE,111,3.0,-999.0,15,-99.99,,,0.00,weatherlink.com 1.10,2013-07-10 20:00:00,
2013-07-10 14:15:00,96.8,42.0,29.56,ESE,108,1.0,-999.0,15,-99.99,,,0.00,weatherlink.com 1.10,2013-07-10 20:15:00,
2013-07-10 14:31:00,97.3,39.0,29.55,West,264,4.0,-999.0,13,-99.99,,,0.00,weatherlink.com 1.10,2013-07-10 20:31:00,
2013-07-10 14:44:00,97.5,41.0,29.55,WSW,245,0.0,-999.0,14,-99.99,,,0.00,weatherlink.com 1.10,2013-07-10 20:44:00,
2013-07-10 15:00:00,96.1,40.0,29.54,SW,221,0.0,-999.0,14,-99.99,,,0.00,weatherlink.com 1.10,2013-07-10 21:00:00,
2013-07-10 15:15:00,95.1,39.0,29.55,ENE,67,4.0,-999.0,14,-99.99,,,0.00,weatherlink.com 1.10,2013-07-10 21:15:00,
2013-07-10 15:31:00,97.8,41.0,29.53,South,178,0.0,-999.0,14,-99.99,,,0.00,weatherlink.com 1.10,2013-07-10 21:31:00,
2013-07-10 15:46:00,94.7,40.0,29.52,SE,137,1.0,-999.0,15,-99.99,,,0.00,weatherlink.com 1.10,2013-07-10 21:46:00,
2013-07-10 16:00:00,97.3,39.0,29.53,SW,224,3.0,-999.0,13,-99.99,,,0.00,weatherlink.com 1.10,2013-07-10 22:00:00,
2013-07-10 16:15:00,97.8,39.0,29.51,SSE,165,3.0,-999.0,13,-99.99,,,0.00,weatherlink.com 1.10,2013-07-10 22:15:00,
2013-07-10 16:31:00,99.4,38.0,29.50,SSW,199,4.0,-999.0,12,-99.99,,,0.00,weatherlink.com 1.10,2013-07-10 22:31:00,
2013-07-10 16:46:00,98.0,39.0,29.50,SSE,149,9.0,-999.0,13,-99.99,,,0.00,weatherlink.com 1.10,2013-07-10 22:46:00,
2013-07-10 17:02:00,89.3,48.0,29.50,ESE,119,7.0,-999.0,24,-99.99,,,0.00,weatherlink.com 1.10,2013-07-10 23:02:00,
2013-07-10 17:16:00,87.4,48.0,29.53,SSE,162,13.0,-999.0,25,-99.99,,,0.00,weatherlink.com 1.10,2013-07-10 23:16:00,
2013-07-10 17:30:00,87.6,47.0,29.53,SE,126,9.0,-999.0,24,-99.99,,,0.00,weatherlink.com 1.10,2013-07-10 23:30:00,
2013-07-10 17:46:00,89.3,47.0,29.54,SSE,148,6.0,-999.0,23,-99.99,,,0.00,weatherlink.com 1.10,2013-07-10 23:46:00,
2013-07-10 18:00:00,90.1,45.0,29.54,SE,131,9.0,-999.0,21,-99.99,,,0.00,weatherlink.com 1.10,2013-07-11 00:00:00,
2013-07-10 18:16:00,89.9,44.0,29.53,East,91,11.0,-999.0,20,-99.99,,,0.00,weatherlink.com 1.10,2013-07-11 00:16:00,
2013-07-10 18:31:00,89.3,45.0,29.54,ENE,69,20.0,-999.0,21,-99.99,,,0.00,weatherlink.com 1.10,2013-07-11 00:31:00,
2013-07-10 18:46:00,85.5,47.0,29.53,East,101,13.0,-999.0,26,-99.99,,,0.00,weatherlink.com 1.10,2013-07-11 00:46:00,
2013-07-10 19:01:00,84.7,47.0,29.55,NE,53,15.0,-999.0,27,-99.99,,,0.00,weatherlink.com 1.10,2013-07-11 01:01:00,
2013-07-10 19:17:00,81.8,47.0,29.59,ENE,78,12.0,-999.0,29,-99.99,,,0.00,weatherlink.com 1.10,2013-07-11 01:17:00,
2013-07-10 19:31:00,79.8,49.0,29.59,ENE,77,16.0,-999.0,34,-99.99,,,0.00,weatherlink.com 1.10,2013-07-11 01:31:00,
2013-07-10 19:46:00,79.0,48.0,29.54,ESE,102,9.0,-999.0,34,-99.99,,,0.00,weatherlink.com 1.10,2013-07-11 01:46:00,
2013-07-10 20:01:00,80.1,47.0,29.55,ESE,103,11.0,-999.0,31,-99.99,,,0.00,weatherlink.com 1.10,2013-07-11 02:01:00,
2013-07-10 20:16:00,78.1,50.0,29.56,NE,51,6.0,-999.0,37,-99.99,,,0.00,weatherlink.com 1.10,2013-07-11 02:16:00,
2013-07-10 20:31:00,76.8,51.0,29.60,ENE,59,6.0,-999.0,40,-99.99,,,0.00,weatherlink.com 1.10,2013-07-11 02:31:00,
2013-07-10 20:46:00,75.8,50.0,29.59,East,80,5.0,-999.0,41,-99.99,,,0.00,weatherlink.com 1.10,2013-07-11 02:46:00,
2013-07-10 21:01:00,75.3,51.0,29.58,North,1,4.0,-999.0,42,-99.99,,,0.00,weatherlink.com 1.10,2013-07-11 03:01:00,
2013-07-10 21:16:00,74.6,51.0,29.59,ENE,71,6.0,-999.0,43,-99.99,,,0.00,weatherlink.com 1.10,2013-07-11 03:16:00,
2013-07-10 21:31:00,74.2,51.0,29.60,NNE,25,2.0,-999.0,44,-99.99,,,0.00,weatherlink.com 1.10,2013-07-11 03:31:00,
2013-07-10 21:46:00,73.5,51.0,29.59,NNE,27,0.0,-999.0,45,-99.99,,,0.00,weatherlink.com 1.10,2013-07-11 03:46:00,
2013-07-10 22:01:00,73.0,50.0,29.59,NE,54,1.0,-999.0,45,-99.99,,,0.00,weatherlink.com 1.10,2013-07-11 04:01:00,
2013-07-10 22:16:00,73.0,50.0,29.59,NE,34,3.0,-999.0,44,-99.99,,,0.00,weatherlink.com 1.10,2013-07-11 04:16:00,
2013-07-10 22:31:00,73.5,50.0,29.59,NNE,23,4.0,-999.0,43,-99.99,,,0.00,weatherlink.com 1.10,2013-07-11 04:31:00,
2013-07-10 22:46:00,73.0,50.0,29.58,North,3,4.0,-999.0,44,-99.99,,,0.00,weatherlink.com 1.10,2013-07-11 04:46:00,
2013-07-10 23:01:00,72.8,50.0,29.58,North,9,3.0,-999.0,45,-99.99,,,0.00,weatherlink.com 1.10,2013-07-11 05:01:00,
2013-07-10 23:16:00,72.1,50.0,29.58,North,1,3.0,-999.0,46,-99.99,,,0.00,weatherlink.com 1.10,2013-07-11 05:16:00,
2013-07-10 23:31:00,71.1,50.0,29.58,North,1,0.0,-999.0,47,-99.99,,,0.00,weatherlink.com 1.10,2013-07-11 05:31:00,
2013-07-10 23:46:00,69.4,50.0,29.57,WNW,288,0.0,-999.0,50,-99.99,,,0.00,weatherlink.com 1.10,2013-07-11 05:46:00,